KDAL/DAL METAR and TAF weather

Enter ICAO airport designator
Station Type Date Time Source
KDAL METAR 2023/04/02 07:53 UTC NOAA

KDAL 020753Z 12004KT 10SM SCT110 BKN250 16/04 A3003 RMK AO2 SLP164 T01560039 $


Station Type Date Time Source
KDAL Decoded METAR 2023/04/02 07:53 UTC NOAA

DALLAS LOVE FIELD, TX, United States (KDAL) 32-51N 096-51W 158M
Apr 02, 2023 - 03:53 AM EDT / 2023.04.02 0753 UTC
Wind: from the ESE (120 degrees) at 5 MPH (4 KT):0
Visibility: 10 mile(s):0
Sky conditions: mostly cloudy
Temperature: 60.1 F (15.6 C)
Dew Point: 39.0 F (3.9 C)
Relative Humidity: 45%
Pressure (altimeter): 30.03 in. Hg (1016 hPa)
ob: KDAL 020753Z 12004KT 10SM SCT110 BKN250 16/04 A3003 RMK AO2 SLP164 T01560039
cycle: 8

Station Type Date Time Source
KDAL TAF 2023/04/02 06:22 UTC NOAA

TAF KDAL 020520Z 0206/0306 12006KT P6SM BKN250
FM021800 17018KT P6SM VCSH BKN040
FM022000 18017KT P6SM VCTS BKN035CB
TEMPO 0222/0301 VRB20G35KT 3SM +TSRA BKN025CB
FM030200 15012KT P6SM SCT070 BKN100

Example: see airport list